sensor_id;sensor_type;location;lat;lon;timestamp;temperature;humidity
34279;DHT22;20538;51.528;9.942;2023-05-13T00:00:36;12.70;99.90
34279;DHT22;20538;51.528;9.942;2023-05-13T00:03:02;12.70;99.90
34279;DHT22;20538;51.528;9.942;2023-05-13T00:05:28;12.60;99.90
34279;DHT22;20538;51.528;9.942;2023-05-13T00:07:53;12.50;99.90
34279;DHT22;20538;51.528;9.942;2023-05-13T00:10:19;12.40;99.90
34279;DHT22;20538;51.528;9.942;2023-05-13T00:12:45;12.40;99.90
34279;DHT22;20538;51.528;9.942;2023-05-13T00:15:11;12.30;99.90
34279;DHT22;20538;51.528;9.942;2023-05-13T00:17:37;12.20;99.90
34279;DHT22;20538;51.528;9.942;2023-05-13T00:20:03;12.10;99.90
34279;DHT22;20538;51.528;9.942;2023-05-13T00:22:29;12.10;99.90
34279;DHT22;20538;51.528;9.942;2023-05-13T00:24:54;12.00;99.90
34279;DHT22;20538;51.528;9.942;2023-05-13T00:27:20;12.00;99.90
34279;DHT22;20538;51.528;9.942;2023-05-13T00:29:45;12.00;99.90
34279;DHT22;20538;51.528;9.942;2023-05-13T00:32:11;11.90;99.90
34279;DHT22;20538;51.528;9.942;2023-05-13T00:34:37;11.90;99.90
34279;DHT22;20538;51.528;9.942;2023-05-13T00:37:02;11.90;99.90
34279;DHT22;20538;51.528;9.942;2023-05-13T00:39:28;11.80;99.90
34279;DHT22;20538;51.528;9.942;2023-05-13T00:41:54;11.80;99.90
34279;DHT22;20538;51.528;9.942;2023-05-13T00:44:19;11.80;99.90
34279;DHT22;20538;51.528;9.942;2023-05-13T00:46:45;11.70;99.90
34279;DHT22;20538;51.528;9.942;2023-05-13T00:49:11;11.70;99.90
34279;DHT22;20538;51.528;9.942;2023-05-13T00:51:37;11.60;99.90
34279;DHT22;20538;51.528;9.942;2023-05-13T00:54:03;11.50;99.90
34279;DHT22;20538;51.528;9.942;2023-05-13T00:56:29;11.50;99.90
34279;DHT22;20538;51.528;9.942;2023-05-13T00:58:54;11.40;99.90
34279;DHT22;20538;51.528;9.942;2023-05-13T01:01:42;11.40;99.90
34279;DHT22;20538;51.528;9.942;2023-05-13T01:04:24;11.40;99.90
34279;DHT22;20538;51.528;9.942;2023-05-13T01:10:14;11.20;99.90
34279;DHT22;20538;51.528;9.942;2023-05-13T01:12:47;11.20;99.90
34279;DHT22;20538;51.528;9.942;2023-05-13T01:15:23;11.20;99.90
34279;DHT22;20538;51.528;9.942;2023-05-13T01:20:33;11.10;99.90
34279;DHT22;20538;51.528;9.942;2023-05-13T01:22:59;11.00;99.90
34279;DHT22;20538;51.528;9.942;2023-05-13T01:25:25;11.00;99.90
34279;DHT22;20538;51.528;9.942;2023-05-13T01:27:51;11.00;99.90
34279;DHT22;20538;51.528;9.942;2023-05-13T01:30:18;11.00;99.90
34279;DHT22;20538;51.528;9.942;2023-05-13T01:32:44;10.80;99.90
34279;DHT22;20538;51.528;9.942;2023-05-13T01:35:10;10.90;99.90
34279;DHT22;20538;51.528;9.942;2023-05-13T01:37:37;10.80;99.90
34279;DHT22;20538;51.528;9.942;2023-05-13T01:40:04;10.80;99.90
34279;DHT22;20538;51.528;9.942;2023-05-13T01:42:31;10.80;99.90
34279;DHT22;20538;51.528;9.942;2023-05-13T01:44:57;10.80;99.90
34279;DHT22;20538;51.528;9.942;2023-05-13T01:47:22;10.90;99.90
34279;DHT22;20538;51.528;9.942;2023-05-13T01:49:48;10.70;99.90
34279;DHT22;20538;51.528;9.942;2023-05-13T01:52:14;10.70;99.90
34279;DHT22;20538;51.528;9.942;2023-05-13T01:54:39;10.60;99.90
34279;DHT22;20538;51.528;9.942;2023-05-13T01:57:05;10.60;99.90
34279;DHT22;20538;51.528;9.942;2023-05-13T01:59:31;10.60;99.90
34279;DHT22;20538;51.528;9.942;2023-05-13T02:01:56;10.60;99.90
34279;DHT22;20538;51.528;9.942;2023-05-13T02:04:22;10.60;99.90
34279;DHT22;20538;51.528;9.942;2023-05-13T02:06:48;10.60;99.90
34279;DHT22;20538;51.528;9.942;2023-05-13T02:09:13;10.50;99.90
34279;DHT22;20538;51.528;9.942;2023-05-13T02:11:41;10.40;99.90
34279;DHT22;20538;51.528;9.942;2023-05-13T02:14:07;10.40;99.90
34279;DHT22;20538;51.528;9.942;2023-05-13T02:16:32;10.40;99.90
34279;DHT22;20538;51.528;9.942;2023-05-13T02:18:58;10.40;99.90
34279;DHT22;20538;51.528;9.942;2023-05-13T02:21:23;10.30;99.90
34279;DHT22;20538;51.528;9.942;2023-05-13T02:23:49;10.30;99.90
34279;DHT22;20538;51.528;9.942;2023-05-13T02:26:15;10.30;99.90
34279;DHT22;20538;51.528;9.942;2023-05-13T02:28:40;10.30;99.90
34279;DHT22;20538;51.528;9.942;2023-05-13T02:31:06;10.20;99.90
34279;DHT22;20538;51.528;9.942;2023-05-13T02:33:32;10.10;99.90
34279;DHT22;20538;51.528;9.942;2023-05-13T02:35:57;10.10;99.90
34279;DHT22;20538;51.528;9.942;2023-05-13T02:38:23;10.10;99.90
34279;DHT22;20538;51.528;9.942;2023-05-13T02:40:49;10.00;99.90
34279;DHT22;20538;51.528;9.942;2023-05-13T02:43:14;10.00;99.90
34279;DHT22;20538;51.528;9.942;2023-05-13T02:45:40;10.00;99.90
34279;DHT22;20538;51.528;9.942;2023-05-13T02:48:06;9.90;99.90
34279;DHT22;20538;51.528;9.942;2023-05-13T02:50:32;9.90;99.90
34279;DHT22;20538;51.528;9.942;2023-05-13T02:52:57;9.90;99.90
34279;DHT22;20538;51.528;9.942;2023-05-13T02:55:23;9.80;99.90
34279;DHT22;20538;51.528;9.942;2023-05-13T02:57:48;9.70;99.90
34279;DHT22;20538;51.528;9.942;2023-05-13T03:00:14;9.70;99.90
34279;DHT22;20538;51.528;9.942;2023-05-13T03:02:40;9.60;99.90
34279;DHT22;20538;51.528;9.942;2023-05-13T03:05:07;9.60;99.90
34279;DHT22;20538;51.528;9.942;2023-05-13T03:07:33;9.60;99.90
34279;DHT22;20538;51.528;9.942;2023-05-13T03:09:59;9.60;99.90
34279;DHT22;20538;51.528;9.942;2023-05-13T03:12:24;9.60;99.90
34279;DHT22;20538;51.528;9.942;2023-05-13T03:14:50;9.50;99.90
34279;DHT22;20538;51.528;9.942;2023-05-13T03:17:16;9.60;99.90
34279;DHT22;20538;51.528;9.942;2023-05-13T03:19:42;9.60;99.90
34279;DHT22;20538;51.528;9.942;2023-05-13T03:22:08;9.60;99.90
34279;DHT22;20538;51.528;9.942;2023-05-13T03:24:34;9.50;99.90
34279;DHT22;20538;51.528;9.942;2023-05-13T03:26:59;9.50;99.90
34279;DHT22;20538;51.528;9.942;2023-05-13T03:29:25;9.50;99.90
34279;DHT22;20538;51.528;9.942;2023-05-13T03:31:51;9.50;99.90
34279;DHT22;20538;51.528;9.942;2023-05-13T03:34:17;9.50;99.90
34279;DHT22;20538;51.528;9.942;2023-05-13T03:36:43;9.50;99.90
34279;DHT22;20538;51.528;9.942;2023-05-13T03:39:09;9.50;99.90
34279;DHT22;20538;51.528;9.942;2023-05-13T03:41:35;9.40;99.90
34279;DHT22;20538;51.528;9.942;2023-05-13T03:44:00;9.40;99.90
34279;DHT22;20538;51.528;9.942;2023-05-13T03:46:26;9.50;99.90
34279;DHT22;20538;51.528;9.942;2023-05-13T03:48:52;9.40;99.90
34279;DHT22;20538;51.528;9.942;2023-05-13T03:51:20;9.50;99.90
34279;DHT22;20538;51.528;9.942;2023-05-13T03:53:46;9.60;99.90
34279;DHT22;20538;51.528;9.942;2023-05-13T03:56:11;9.60;99.90
34279;DHT22;20538;51.528;9.942;2023-05-13T03:58:37;9.60;99.90
34279;DHT22;20538;51.528;9.942;2023-05-13T04:01:03;9.60;99.90
34279;DHT22;20538;51.528;9.942;2023-05-13T04:03:29;9.70;99.90
34279;DHT22;20538;51.528;9.942;2023-05-13T04:05:55;9.70;99.90
34279;DHT22;20538;51.528;9.942;2023-05-13T04:08:21;9.80;99.90
34279;DHT22;20538;51.528;9.942;2023-05-13T04:10:46;9.80;99.90
34279;DHT22;20538;51.528;9.942;2023-05-13T04:13:12;9.80;99.90
34279;DHT22;20538;51.528;9.942;2023-05-13T04:15:38;9.90;99.90
34279;DHT22;20538;51.528;9.942;2023-05-13T04:18:03;9.90;99.90
34279;DHT22;20538;51.528;9.942;2023-05-13T04:20:29;10.00;99.90
34279;DHT22;20538;51.528;9.942;2023-05-13T04:22:55;10.10;99.90
34279;DHT22;20538;51.528;9.942;2023-05-13T04:25:21;10.10;99.90
34279;DHT22;20538;51.528;9.942;2023-05-13T04:27:46;10.20;99.90
34279;DHT22;20538;51.528;9.942;2023-05-13T04:30:12;10.40;99.90
34279;DHT22;20538;51.528;9.942;2023-05-13T04:32:38;10.40;99.90
34279;DHT22;20538;51.528;9.942;2023-05-13T04:35:06;10.50;99.90
34279;DHT22;20538;51.528;9.942;2023-05-13T04:37:32;10.60;99.90
34279;DHT22;20538;51.528;9.942;2023-05-13T04:39:58;11.10;99.90
34279;DHT22;20538;51.528;9.942;2023-05-13T04:42:23;11.90;99.90
34279;DHT22;20538;51.528;9.942;2023-05-13T04:44:49;12.30;99.90
34279;DHT22;20538;51.528;9.942;2023-05-13T04:47:15;12.20;99.90
34279;DHT22;20538;51.528;9.942;2023-05-13T04:49:41;13.20;99.90
34279;DHT22;20538;51.528;9.942;2023-05-13T04:52:06;14.10;99.90
34279;DHT22;20538;51.528;9.942;2023-05-13T04:54:32;14.60;99.90
34279;DHT22;20538;51.528;9.942;2023-05-13T04:57:00;15.20;99.90
34279;DHT22;20538;51.528;9.942;2023-05-13T04:59:26;15.50;99.90
34279;DHT22;20538;51.528;9.942;2023-05-13T05:01:52;16.00;99.90
34279;DHT22;20538;51.528;9.942;2023-05-13T05:04:17;16.10;99.90
34279;DHT22;20538;51.528;9.942;2023-05-13T05:06:43;16.20;99.90
34279;DHT22;20538;51.528;9.942;2023-05-13T05:09:09;16.00;99.90
34279;DHT22;20538;51.528;9.942;2023-05-13T05:11:35;14.80;99.90
34279;DHT22;20538;51.528;9.942;2023-05-13T05:14:00;14.20;99.90
34279;DHT22;20538;51.528;9.942;2023-05-13T05:16:26;15.00;99.90
34279;DHT22;20538;51.528;9.942;2023-05-13T05:18:51;15.60;99.90
34279;DHT22;20538;51.528;9.942;2023-05-13T05:21:17;16.10;99.90
34279;DHT22;20538;51.528;9.942;2023-05-13T05:23:43;16.40;99.90
34279;DHT22;20538;51.528;9.942;2023-05-13T05:26:08;16.50;99.90
34279;DHT22;20538;51.528;9.942;2023-05-13T05:28:36;16.60;99.90
34279;DHT22;20538;51.528;9.942;2023-05-13T05:31:04;16.90;99.90
34279;DHT22;20538;51.528;9.942;2023-05-13T05:33:30;17.00;99.90
34279;DHT22;20538;51.528;9.942;2023-05-13T05:35:56;17.00;99.90
34279;DHT22;20538;51.528;9.942;2023-05-13T05:38:22;17.00;99.90
34279;DHT22;20538;51.528;9.942;2023-05-13T05:40:49;17.50;99.90
34279;DHT22;20538;51.528;9.942;2023-05-13T05:43:15;17.60;99.90
34279;DHT22;20538;51.528;9.942;2023-05-13T05:45:41;16.50;99.90
34279;DHT22;20538;51.528;9.942;2023-05-13T05:48:07;16.30;99.90
34279;DHT22;20538;51.528;9.942;2023-05-13T05:50:33;16.60;99.90
34279;DHT22;20538;51.528;9.942;2023-05-13T05:52:59;16.00;99.90
34279;DHT22;20538;51.528;9.942;2023-05-13T05:55:25;15.50;99.90
34279;DHT22;20538;51.528;9.942;2023-05-13T05:57:55;15.10;99.90
34279;DHT22;20538;51.528;9.942;2023-05-13T06:00:21;14.50;99.90
34279;DHT22;20538;51.528;9.942;2023-05-13T06:02:47;14.40;99.90
34279;DHT22;20538;51.528;9.942;2023-05-13T06:05:15;14.30;99.90
34279;DHT22;20538;51.528;9.942;2023-05-13T06:07:41;14.10;99.90
34279;DHT22;20538;51.528;9.942;2023-05-13T06:10:07;14.00;99.90
34279;DHT22;20538;51.528;9.942;2023-05-13T06:12:33;13.90;99.90
34279;DHT22;20538;51.528;9.942;2023-05-13T06:15:00;13.90;99.90
34279;DHT22;20538;51.528;9.942;2023-05-13T06:17:26;14.00;99.90
34279;DHT22;20538;51.528;9.942;2023-05-13T06:19:51;14.00;99.90
34279;DHT22;20538;51.528;9.942;2023-05-13T06:22:17;14.00;99.90
34279;DHT22;20538;51.528;9.942;2023-05-13T06:24:42;14.00;99.90
34279;DHT22;20538;51.528;9.942;2023-05-13T06:27:12;14.30;99.90
34279;DHT22;20538;51.528;9.942;2023-05-13T06:29:38;14.50;99.90
34279;DHT22;20538;51.528;9.942;2023-05-13T06:32:04;14.70;99.90
34279;DHT22;20538;51.528;9.942;2023-05-13T06:34:30;14.60;99.90
34279;DHT22;20538;51.528;9.942;2023-05-13T06:36:56;14.80;99.90
34279;DHT22;20538;51.528;9.942;2023-05-13T06:39:22;14.60;99.90
34279;DHT22;20538;51.528;9.942;2023-05-13T06:41:47;14.60;99.90
34279;DHT22;20538;51.528;9.942;2023-05-13T06:44:13;15.00;99.90
34279;DHT22;20538;51.528;9.942;2023-05-13T06:46:38;15.20;99.90
34279;DHT22;20538;51.528;9.942;2023-05-13T06:49:04;15.30;99.90
34279;DHT22;20538;51.528;9.942;2023-05-13T06:51:31;15.30;99.90
34279;DHT22;20538;51.528;9.942;2023-05-13T06:53:57;15.30;99.90
34279;DHT22;20538;51.528;9.942;2023-05-13T06:56:23;15.50;99.90
34279;DHT22;20538;51.528;9.942;2023-05-13T06:58:50;15.80;99.90
34279;DHT22;20538;51.528;9.942;2023-05-13T07:01:17;15.90;99.90
34279;DHT22;20538;51.528;9.942;2023-05-13T07:03:43;16.00;99.90
34279;DHT22;20538;51.528;9.942;2023-05-13T07:06:09;16.00;99.90
34279;DHT22;20538;51.528;9.942;2023-05-13T07:08:35;15.70;99.90
34279;DHT22;20538;51.528;9.942;2023-05-13T07:11:00;15.50;99.90
34279;DHT22;20538;51.528;9.942;2023-05-13T07:13:26;15.50;99.90
34279;DHT22;20538;51.528;9.942;2023-05-13T07:15:52;15.80;99.90
34279;DHT22;20538;51.528;9.942;2023-05-13T07:18:17;15.90;99.90
34279;DHT22;20538;51.528;9.942;2023-05-13T07:20:43;16.20;99.90
34279;DHT22;20538;51.528;9.942;2023-05-13T07:23:09;16.30;99.90
34279;DHT22;20538;51.528;9.942;2023-05-13T07:25:37;16.30;99.90
34279;DHT22;20538;51.528;9.942;2023-05-13T07:28:03;16.30;99.90
34279;DHT22;20538;51.528;9.942;2023-05-13T07:30:28;16.40;99.90
34279;DHT22;20538;51.528;9.942;2023-05-13T07:32:57;16.30;99.90
34279;DHT22;20538;51.528;9.942;2023-05-13T07:35:23;16.30;99.90
34279;DHT22;20538;51.528;9.942;2023-05-13T07:37:48;16.30;99.90
34279;DHT22;20538;51.528;9.942;2023-05-13T07:40:14;16.50;99.90
34279;DHT22;20538;51.528;9.942;2023-05-13T07:42:40;16.80;99.90
34279;DHT22;20538;51.528;9.942;2023-05-13T07:45:09;17.00;99.90
34279;DHT22;20538;51.528;9.942;2023-05-13T07:47:35;17.20;99.90
34279;DHT22;20538;51.528;9.942;2023-05-13T07:50:01;17.00;99.90
34279;DHT22;20538;51.528;9.942;2023-05-13T07:52:26;17.10;99.90
34279;DHT22;20538;51.528;9.942;2023-05-13T07:54:53;17.10;99.90
34279;DHT22;20538;51.528;9.942;2023-05-13T07:57:18;17.50;99.90
34279;DHT22;20538;51.528;9.942;2023-05-13T07:59:44;17.10;99.90
34279;DHT22;20538;51.528;9.942;2023-05-13T08:02:10;17.60;99.90
34279;DHT22;20538;51.528;9.942;2023-05-13T08:04:36;17.70;99.90
34279;DHT22;20538;51.528;9.942;2023-05-13T08:07:02;17.60;99.90
34279;DHT22;20538;51.528;9.942;2023-05-13T08:09:28;16.90;99.90
34279;DHT22;20538;51.528;9.942;2023-05-13T08:11:54;17.10;99.90
34279;DHT22;20538;51.528;9.942;2023-05-13T08:14:20;17.50;99.90
34279;DHT22;20538;51.528;9.942;2023-05-13T08:16:46;17.70;99.90
34279;DHT22;20538;51.528;9.942;2023-05-13T08:19:13;18.30;99.90
34279;DHT22;20538;51.528;9.942;2023-05-13T08:21:38;18.00;99.90
34279;DHT22;20538;51.528;9.942;2023-05-13T08:24:04;17.30;99.90
34279;DHT22;20538;51.528;9.942;2023-05-13T08:26:31;17.60;99.90
34279;DHT22;20538;51.528;9.942;2023-05-13T08:28:58;17.70;99.90
34279;DHT22;20538;51.528;9.942;2023-05-13T08:31:24;17.80;99.90
34279;DHT22;20538;51.528;9.942;2023-05-13T08:33:53;17.90;99.90
34279;DHT22;20538;51.528;9.942;2023-05-13T08:36:20;17.90;99.90
34279;DHT22;20538;51.528;9.942;2023-05-13T08:38:47;17.80;99.90
34279;DHT22;20538;51.528;9.942;2023-05-13T08:41:13;18.00;99.90
34279;DHT22;20538;51.528;9.942;2023-05-13T08:43:41;18.20;99.90
34279;DHT22;20538;51.528;9.942;2023-05-13T08:46:09;18.30;99.90
34279;DHT22;20538;51.528;9.942;2023-05-13T08:48:40;18.40;99.90
34279;DHT22;20538;51.528;9.942;2023-05-13T08:51:09;18.30;99.90
34279;DHT22;20538;51.528;9.942;2023-05-13T08:53:38;18.40;99.90
34279;DHT22;20538;51.528;9.942;2023-05-13T08:56:06;17.80;99.90
34279;DHT22;20538;51.528;9.942;2023-05-13T08:58:32;18.20;99.90
34279;DHT22;20538;51.528;9.942;2023-05-13T09:00:58;18.60;99.90
34279;DHT22;20538;51.528;9.942;2023-05-13T09:03:26;18.80;99.90
34279;DHT22;20538;51.528;9.942;2023-05-13T09:05:52;19.20;99.90
34279;DHT22;20538;51.528;9.942;2023-05-13T09:08:18;19.20;99.90
34279;DHT22;20538;51.528;9.942;2023-05-13T09:10:46;19.20;99.90
34279;DHT22;20538;51.528;9.942;2023-05-13T09:13:12;18.90;99.90
34279;DHT22;20538;51.528;9.942;2023-05-13T09:15:41;19.10;99.90
34279;DHT22;20538;51.528;9.942;2023-05-13T09:18:08;18.70;99.90
34279;DHT22;20538;51.528;9.942;2023-05-13T09:20:34;18.90;99.90
34279;DHT22;20538;51.528;9.942;2023-05-13T09:23:05;19.00;99.90
34279;DHT22;20538;51.528;9.942;2023-05-13T09:25:31;18.30;99.90
34279;DHT22;20538;51.528;9.942;2023-05-13T09:27:59;18.50;99.90
34279;DHT22;20538;51.528;9.942;2023-05-13T09:30:26;18.40;99.90
34279;DHT22;20538;51.528;9.942;2023-05-13T09:33:07;18.70;99.90
34279;DHT22;20538;51.528;9.942;2023-05-13T09:35:35;18.60;99.90
34279;DHT22;20538;51.528;9.942;2023-05-13T09:40:58;19.00;99.90
34279;DHT22;20538;51.528;9.942;2023-05-13T09:43:27;19.50;99.90
34279;DHT22;20538;51.528;9.942;2023-05-13T09:45:59;19.70;99.90
34279;DHT22;20538;51.528;9.942;2023-05-13T09:48:32;19.50;99.90
34279;DHT22;20538;51.528;9.942;2023-05-13T09:50:58;18.90;99.90
34279;DHT22;20538;51.528;9.942;2023-05-13T09:53:24;19.40;99.90
34279;DHT22;20538;51.528;9.942;2023-05-13T09:55:52;19.50;99.90
34279;DHT22;20538;51.528;9.942;2023-05-13T09:58:19;19.80;99.90
34279;DHT22;20538;51.528;9.942;2023-05-13T10:00:45;19.10;99.90
34279;DHT22;20538;51.528;9.942;2023-05-13T10:03:12;19.70;99.90
34279;DHT22;20538;51.528;9.942;2023-05-13T10:05:41;20.00;99.90
34279;DHT22;20538;51.528;9.942;2023-05-13T10:08:09;20.10;99.90
34279;DHT22;20538;51.528;9.942;2023-05-13T10:10:35;20.30;99.90
34279;DHT22;20538;51.528;9.942;2023-05-13T10:13:14;20.70;99.90
34279;DHT22;20538;51.528;9.942;2023-05-13T10:15:52;20.90;99.90
34279;DHT22;20538;51.528;9.942;2023-05-13T10:18:19;21.20;99.90
34279;DHT22;20538;51.528;9.942;2023-05-13T10:20:45;21.70;99.90
34279;DHT22;20538;51.528;9.942;2023-05-13T10:23:11;21.80;99.90
34279;DHT22;20538;51.528;9.942;2023-05-13T10:25:37;21.80;99.90
34279;DHT22;20538;51.528;9.942;2023-05-13T10:28:04;21.90;99.90
34279;DHT22;20538;51.528;9.942;2023-05-13T10:30:30;21.80;99.90
34279;DHT22;20538;51.528;9.942;2023-05-13T10:32:57;21.50;99.90
34279;DHT22;20538;51.528;9.942;2023-05-13T10:35:28;21.10;99.90
34279;DHT22;20538;51.528;9.942;2023-05-13T10:43:34;21.10;99.90
34279;DHT22;20538;51.528;9.942;2023-05-13T10:46:10;21.10;99.90
34279;DHT22;20538;51.528;9.942;2023-05-13T10:49:03;20.90;99.90
34279;DHT22;20538;51.528;9.942;2023-05-13T10:51:28;21.10;99.90
34279;DHT22;20538;51.528;9.942;2023-05-13T10:53:55;21.40;99.90
34279;DHT22;20538;51.528;9.942;2023-05-13T10:56:25;21.70;99.90
34279;DHT22;20538;51.528;9.942;2023-05-13T10:58:57;21.90;99.90
34279;DHT22;20538;51.528;9.942;2023-05-13T11:01:34;21.90;99.90
34279;DHT22;20538;51.528;9.942;2023-05-13T11:04:02;21.80;99.90
34279;DHT22;20538;51.528;9.942;2023-05-13T11:06:39;21.70;99.90
34279;DHT22;20538;51.528;9.942;2023-05-13T11:09:13;22.10;99.90
34279;DHT22;20538;51.528;9.942;2023-05-13T11:11:39;22.20;99.90
34279;DHT22;20538;51.528;9.942;2023-05-13T11:14:16;22.10;99.90
34279;DHT22;20538;51.528;9.942;2023-05-13T11:19:35;21.00;99.90
34279;DHT22;20538;51.528;9.942;2023-05-13T11:22:08;21.10;99.90
34279;DHT22;20538;51.528;9.942;2023-05-13T11:24:38;21.50;99.90
34279;DHT22;20538;51.528;9.942;2023-05-13T11:27:15;21.40;99.90
34279;DHT22;20538;51.528;9.942;2023-05-13T11:29:50;21.60;99.90
34279;DHT22;20538;51.528;9.942;2023-05-13T11:35:00;21.30;98.50
34279;DHT22;20538;51.528;9.942;2023-05-13T11:37:28;21.30;98.40
34279;DHT22;20538;51.528;9.942;2023-05-13T11:39:56;20.70;98.30
34279;DHT22;20538;51.528;9.942;2023-05-13T11:42:23;20.80;99.30
34279;DHT22;20538;51.528;9.942;2023-05-13T11:44:50;21.00;98.10
34279;DHT22;20538;51.528;9.942;2023-05-13T11:47:24;21.20;98.10
34279;DHT22;20538;51.528;9.942;2023-05-13T11:49:51;21.20;97.20
34279;DHT22;20538;51.528;9.942;2023-05-13T11:52:21;21.20;96.30
34279;DHT22;20538;51.528;9.942;2023-05-13T11:54:51;21.20;97.50
34279;DHT22;20538;51.528;9.942;2023-05-13T11:57:19;21.30;97.30
34279;DHT22;20538;51.528;9.942;2023-05-13T12:02:14;21.30;98.80
34279;DHT22;20538;51.528;9.942;2023-05-13T12:04:40;21.40;98.10
34279;DHT22;20538;51.528;9.942;2023-05-13T12:07:10;21.30;97.70
34279;DHT22;20538;51.528;9.942;2023-05-13T12:09:36;21.40;98.70
34279;DHT22;20538;51.528;9.942;2023-05-13T12:12:02;21.20;97.00
34279;DHT22;20538;51.528;9.942;2023-05-13T12:14:28;21.40;98.40
34279;DHT22;20538;51.528;9.942;2023-05-13T12:16:55;21.40;97.40
34279;DHT22;20538;51.528;9.942;2023-05-13T12:19:21;21.60;97.70
34279;DHT22;20538;51.528;9.942;2023-05-13T12:21:49;21.20;97.00
34279;DHT22;20538;51.528;9.942;2023-05-13T12:24:18;21.80;97.70
34279;DHT22;20538;51.528;9.942;2023-05-13T12:26:44;21.40;97.00
34279;DHT22;20538;51.528;9.942;2023-05-13T12:29:10;21.50;98.40
34279;DHT22;20538;51.528;9.942;2023-05-13T12:31:36;21.00;97.10
34279;DHT22;20538;51.528;9.942;2023-05-13T12:34:02;20.80;97.30
34279;DHT22;20538;51.528;9.942;2023-05-13T12:36:29;21.00;97.50
34279;DHT22;20538;51.528;9.942;2023-05-13T12:39:04;21.20;98.40
34279;DHT22;20538;51.528;9.942;2023-05-13T12:41:38;21.40;97.00
34279;DHT22;20538;51.528;9.942;2023-05-13T12:44:12;21.20;97.10
34279;DHT22;20538;51.528;9.942;2023-05-13T12:46:52;20.80;96.30
34279;DHT22;20538;51.528;9.942;2023-05-13T12:49:18;21.00;97.30
34279;DHT22;20538;51.528;9.942;2023-05-13T12:51:43;20.70;96.80
34279;DHT22;20538;51.528;9.942;2023-05-13T12:54:12;20.80;97.50
34279;DHT22;20538;51.528;9.942;2023-05-13T12:56:38;21.30;96.90
34279;DHT22;20538;51.528;9.942;2023-05-13T12:59:05;21.60;96.70
34279;DHT22;20538;51.528;9.942;2023-05-13T13:01:31;21.30;95.40
34279;DHT22;20538;51.528;9.942;2023-05-13T13:03:56;21.40;96.10
34279;DHT22;20538;51.528;9.942;2023-05-13T13:06:22;21.20;96.50
34279;DHT22;20538;51.528;9.942;2023-05-13T13:08:47;21.00;95.30
34279;DHT22;20538;51.528;9.942;2023-05-13T13:11:13;21.30;95.10
34279;DHT22;20538;51.528;9.942;2023-05-13T13:13:46;21.60;95.00
34279;DHT22;20538;51.528;9.942;2023-05-13T13:16:13;21.80;94.50
34279;DHT22;20538;51.528;9.942;2023-05-13T13:18:39;22.00;95.20
34279;DHT22;20538;51.528;9.942;2023-05-13T13:21:05;22.00;94.60
34279;DHT22;20538;51.528;9.942;2023-05-13T13:23:32;22.10;93.80
34279;DHT22;20538;51.528;9.942;2023-05-13T13:25:58;21.60;94.40
34279;DHT22;20538;51.528;9.942;2023-05-13T13:28:27;21.40;94.30
34279;DHT22;20538;51.528;9.942;2023-05-13T13:30:53;21.60;94.00
34279;DHT22;20538;51.528;9.942;2023-05-13T13:33:18;21.70;94.50
34279;DHT22;20538;51.528;9.942;2023-05-13T13:35:45;21.70;93.60
34279;DHT22;20538;51.528;9.942;2023-05-13T13:38:11;21.20;92.30
34279;DHT22;20538;51.528;9.942;2023-05-13T13:40:38;21.10;92.60
34279;DHT22;20538;51.528;9.942;2023-05-13T13:43:05;21.30;93.40
34279;DHT22;20538;51.528;9.942;2023-05-13T13:45:31;21.50;93.90
34279;DHT22;20538;51.528;9.942;2023-05-13T13:47:57;21.40;93.30
34279;DHT22;20538;51.528;9.942;2023-05-13T13:50:23;21.80;93.50
34279;DHT22;20538;51.528;9.942;2023-05-13T13:52:49;21.90;94.20
34279;DHT22;20538;51.528;9.942;2023-05-13T13:55:17;21.60;91.40
34279;DHT22;20538;51.528;9.942;2023-05-13T13:57:43;21.60;92.00
34279;DHT22;20538;51.528;9.942;2023-05-13T14:00:10;21.20;90.80
34279;DHT22;20538;51.528;9.942;2023-05-13T14:02:35;20.80;90.80
34279;DHT22;20538;51.528;9.942;2023-05-13T14:05:01;20.70;90.10
34279;DHT22;20538;51.528;9.942;2023-05-13T14:07:27;20.60;90.70
34279;DHT22;20538;51.528;9.942;2023-05-13T14:09:52;20.60;91.20
34279;DHT22;20538;51.528;9.942;2023-05-13T14:12:18;20.80;91.20
34279;DHT22;20538;51.528;9.942;2023-05-13T14:14:44;21.20;91.80
34279;DHT22;20538;51.528;9.942;2023-05-13T14:17:09;21.20;91.90
34279;DHT22;20538;51.528;9.942;2023-05-13T14:19:35;21.30;91.60
34279;DHT22;20538;51.528;9.942;2023-05-13T14:22:00;21.60;92.40
34279;DHT22;20538;51.528;9.942;2023-05-13T14:24:26;21.60;91.50
34279;DHT22;20538;51.528;9.942;2023-05-13T14:26:52;21.40;91.50
34279;DHT22;20538;51.528;9.942;2023-05-13T14:29:18;21.10;91.90
34279;DHT22;20538;51.528;9.942;2023-05-13T14:31:44;21.60;92.40
34279;DHT22;20538;51.528;9.942;2023-05-13T14:34:09;21.90;91.70
34279;DHT22;20538;51.528;9.942;2023-05-13T14:36:35;22.00;91.80
34279;DHT22;20538;51.528;9.942;2023-05-13T14:39:01;21.60;90.30
34279;DHT22;20538;51.528;9.942;2023-05-13T14:41:29;21.70;91.00
34279;DHT22;20538;51.528;9.942;2023-05-13T14:43:55;21.60;87.10
34279;DHT22;20538;51.528;9.942;2023-05-13T14:46:20;21.90;88.50
34279;DHT22;20538;51.528;9.942;2023-05-13T14:48:46;22.00;87.70
34279;DHT22;20538;51.528;9.942;2023-05-13T14:51:12;22.00;88.00
34279;DHT22;20538;51.528;9.942;2023-05-13T14:53:38;21.80;86.70
34279;DHT22;20538;51.528;9.942;2023-05-13T14:56:05;21.40;86.80
34279;DHT22;20538;51.528;9.942;2023-05-13T14:58:31;21.30;87.80
34279;DHT22;20538;51.528;9.942;2023-05-13T15:00:56;21.30;86.50
34279;DHT22;20538;51.528;9.942;2023-05-13T15:03:22;21.30;86.00
34279;DHT22;20538;51.528;9.942;2023-05-13T15:05:48;21.50;86.10
34279;DHT22;20538;51.528;9.942;2023-05-13T15:08:14;21.60;87.50
34279;DHT22;20538;51.528;9.942;2023-05-13T15:10:41;21.30;87.80
34279;DHT22;20538;51.528;9.942;2023-05-13T15:13:06;20.80;83.50
34279;DHT22;20538;51.528;9.942;2023-05-13T15:15:32;20.70;85.70
34279;DHT22;20538;51.528;9.942;2023-05-13T15:17:58;20.70;85.10
34279;DHT22;20538;51.528;9.942;2023-05-13T15:20:24;20.60;85.70
34279;DHT22;20538;51.528;9.942;2023-05-13T15:22:49;20.50;85.50
34279;DHT22;20538;51.528;9.942;2023-05-13T15:25:18;20.50;87.30
34279;DHT22;20538;51.528;9.942;2023-05-13T15:27:43;20.50;87.00
34279;DHT22;20538;51.528;9.942;2023-05-13T15:30:09;20.90;87.80
34279;DHT22;20538;51.528;9.942;2023-05-13T15:32:35;21.10;88.40
34279;DHT22;20538;51.528;9.942;2023-05-13T15:35:01;21.50;89.40
34279;DHT22;20538;51.528;9.942;2023-05-13T15:37:26;21.80;88.50
34279;DHT22;20538;51.528;9.942;2023-05-13T15:39:55;22.10;89.90
34279;DHT22;20538;51.528;9.942;2023-05-13T15:42:22;22.30;89.00
34279;DHT22;20538;51.528;9.942;2023-05-13T15:44:47;21.60;88.80
34279;DHT22;20538;51.528;9.942;2023-05-13T15:47:13;21.80;88.40
34279;DHT22;20538;51.528;9.942;2023-05-13T15:49:39;21.40;86.90
34279;DHT22;20538;51.528;9.942;2023-05-13T15:52:05;21.40;85.40